createdAt,value
2023-10-14T00:02:16.058Z,56
2023-10-14T00:04:46.543Z,56
2023-10-14T00:07:16.941Z,56
2023-10-14T00:09:47.465Z,56
2023-10-14T00:12:17.956Z,56
2023-10-14T00:14:52.017Z,52
2023-10-14T00:17:22.728Z,52
2023-10-14T00:19:53.372Z,56
2023-10-14T00:22:24.375Z,60
2023-10-14T00:24:54.021Z,60
2023-10-14T00:27:27.667Z,57
2023-10-14T00:29:58.544Z,56
2023-10-14T00:32:29.727Z,59
2023-10-14T00:35:00.970Z,56
2023-10-14T00:37:32.001Z,56
2023-10-14T00:40:02.923Z,57
2023-10-14T00:42:33.910Z,56
2023-10-14T00:45:04.492Z,56
2023-10-14T00:47:34.727Z,52
2023-10-14T00:50:05.887Z,56
2023-10-14T00:52:36.248Z,55
2023-10-14T00:55:07.580Z,56
2023-10-14T00:57:38.017Z,55
2023-10-14T01:00:09.238Z,52
2023-10-14T01:02:40.012Z,52
2023-10-14T01:05:10.375Z,52
2023-10-14T01:07:41.716Z,52
2023-10-14T01:10:12.881Z,50
2023-10-14T01:12:44.215Z,54
2023-10-14T01:15:15.354Z,52
2023-10-14T01:17:46.507Z,55
2023-10-14T01:20:17.349Z,57
2023-10-14T01:22:48.505Z,56
2023-10-14T01:25:19.432Z,50
2023-10-14T01:27:49.824Z,48
2023-10-14T01:30:20.823Z,52
2023-10-14T01:32:51.882Z,48
2023-10-14T01:35:21.965Z,48
2023-10-14T01:37:52.771Z,49
2023-10-14T01:40:23.557Z,46
2023-10-14T01:42:55.071Z,48
2023-10-14T01:45:25.869Z,44
2023-10-14T01:47:56.873Z,44
2023-10-14T01:50:27.700Z,43
2023-10-14T01:52:58.332Z,44
2023-10-14T01:55:28.921Z,44
2023-10-14T01:57:59.795Z,46
2023-10-14T02:00:29.976Z,44
2023-10-14T02:03:00.779Z,44
2023-10-14T02:05:32.073Z,40
2023-10-14T02:08:03.207Z,40
2023-10-14T02:10:34.509Z,38
2023-10-14T02:13:05.962Z,36
2023-10-14T02:15:37.067Z,36
2023-10-14T02:18:06.287Z,40
2023-10-14T02:20:37.055Z,41
2023-10-14T02:23:08.254Z,40
2023-10-14T02:25:39.495Z,41
2023-10-14T02:28:10.034Z,39
2023-10-14T02:30:40.790Z,44
2023-10-14T02:33:11.742Z,44
2023-10-14T02:35:42.906Z,38
2023-10-14T02:38:13.416Z,33
2023-10-14T02:40:44.670Z,36
2023-10-14T02:43:15.240Z,36
2023-10-14T02:45:45.891Z,36
2023-10-14T02:48:16.543Z,37
2023-10-14T02:50:47.147Z,36
2023-10-14T02:53:17.749Z,32
2023-10-14T02:55:48.275Z,36
2023-10-14T02:58:19.002Z,34
2023-10-14T03:00:49.713Z,36
2023-10-14T03:03:21.079Z,36
2023-10-14T03:05:51.979Z,36
2023-10-14T03:08:23.092Z,34
2023-10-14T03:10:53.573Z,36
2023-10-14T03:13:24.357Z,36
2023-10-14T03:15:55.090Z,36
2023-10-14T03:18:25.653Z,34
2023-10-14T03:20:56.259Z,36
2023-10-14T03:23:26.781Z,32
2023-10-14T03:25:57.357Z,36
2023-10-14T03:28:28.194Z,34
2023-10-14T03:30:59.298Z,36
2023-10-14T03:33:29.841Z,34
2023-10-14T03:36:00.606Z,32
2023-10-14T03:38:31.809Z,34
2023-10-14T03:41:03.334Z,32
2023-10-14T03:43:34.794Z,34
2023-10-14T03:46:06.004Z,36
2023-10-14T03:48:36.707Z,36
2023-10-14T03:51:08.480Z,32
2023-10-14T03:53:38.895Z,34
2023-10-14T03:56:09.505Z,32
2023-10-14T03:58:40.509Z,32
2023-10-14T04:01:11.367Z,32
2023-10-14T04:03:42.023Z,32
2023-10-14T04:06:12.624Z,32
2023-10-14T04:08:43.587Z,32
2023-10-14T04:11:14.049Z,31
2023-10-14T04:13:44.615Z,32
2023-10-14T04:16:16.084Z,32
2023-10-14T04:18:47.140Z,32
2023-10-14T04:21:17.282Z,34
2023-10-14T04:23:48.339Z,36
2023-10-14T04:26:19.836Z,36
2023-10-14T04:28:51.275Z,45
2023-10-14T04:31:22.277Z,52
2023-10-14T04:33:52.649Z,62
2023-10-14T04:36:23.245Z,64
2023-10-14T04:38:54.391Z,64
2023-10-14T04:41:25.393Z,64
2023-10-14T04:43:56.321Z,63
2023-10-14T04:46:26.833Z,60
2023-10-14T04:48:57.857Z,60
2023-10-14T04:51:28.754Z,60
2023-10-14T04:53:58.911Z,60
2023-10-14T04:56:30.810Z,63
2023-10-14T04:59:01.435Z,60
2023-10-14T05:01:32.250Z,59
2023-10-14T05:04:02.810Z,62
2023-10-14T05:06:33.437Z,60
2023-10-14T05:09:03.918Z,58
2023-10-14T05:11:34.687Z,60
2023-10-14T05:14:06.169Z,62
2023-10-14T05:16:36.686Z,60
2023-10-14T05:19:07.302Z,64
2023-10-14T05:21:37.803Z,67
2023-10-14T05:24:08.907Z,63
2023-10-14T05:26:39.485Z,62
2023-10-14T05:29:10.720Z,67
2023-10-14T05:31:41.116Z,64
2023-10-14T05:34:11.858Z,64
2023-10-14T05:36:42.437Z,60
2023-10-14T05:39:13.413Z,60
2023-10-14T05:41:44.574Z,63
2023-10-14T05:44:15.586Z,61
2023-10-14T05:46:47.120Z,63
2023-10-14T05:49:18.265Z,60
2023-10-14T05:51:49.395Z,60
2023-10-14T05:54:19.830Z,62
2023-10-14T05:56:50.158Z,60
2023-10-14T05:59:21.010Z,63
2023-10-14T06:01:51.486Z,60
2023-10-14T06:04:20.653Z,64
2023-10-14T06:06:51.014Z,60
2023-10-14T06:09:22.848Z,64
2023-10-14T06:11:53.620Z,65
2023-10-14T06:14:24.550Z,63
2023-10-14T06:16:57.122Z,68
2023-10-14T06:19:28.395Z,67
2023-10-14T06:21:59.161Z,64
2023-10-14T06:24:29.481Z,68
2023-10-14T06:26:59.933Z,63
2023-10-14T06:29:30.662Z,68
2023-10-14T06:32:13.034Z,69
2023-10-14T06:34:31.497Z,68
2023-10-14T06:37:02.324Z,68
2023-10-14T06:39:32.846Z,72
2023-10-14T06:42:03.696Z,69
2023-10-14T06:44:34.222Z,68
2023-10-14T06:47:04.731Z,68
2023-10-14T06:49:35.438Z,70
2023-10-14T06:52:06.477Z,68
2023-10-14T06:54:36.734Z,67
2023-10-14T06:57:07.529Z,64
2023-10-14T06:59:38.239Z,64
2023-10-14T07:02:08.661Z,60
2023-10-14T07:04:40.214Z,59
2023-10-14T07:07:12.219Z,60
2023-10-14T07:09:41.647Z,52
2023-10-14T07:12:12.422Z,52
2023-10-14T07:14:43.675Z,54
2023-10-14T07:17:12.724Z,52
2023-10-14T07:19:43.365Z,64
2023-10-14T07:22:14.514Z,56
2023-10-14T07:24:45.518Z,64
2023-10-14T07:27:16.244Z,80
2023-10-14T07:29:47.522Z,72
2023-10-14T07:32:17.966Z,109
2023-10-14T07:34:49.511Z,56
2023-10-14T07:37:20.516Z,64
2023-10-14T07:39:50.978Z,56
2023-10-14T07:42:22.319Z,56
2023-10-14T07:44:53.521Z,52
2023-10-14T07:47:24.206Z,56
2023-10-14T07:49:55.065Z,56
2023-10-14T07:52:25.806Z,40
2023-10-14T07:54:56.743Z,32
2023-10-14T07:57:27.677Z,32
2023-10-14T07:59:58.154Z,32
2023-10-14T08:02:27.340Z,48
2023-10-14T08:04:58.285Z,52
2023-10-14T08:07:29.946Z,44
2023-10-14T08:10:00.688Z,43
2023-10-14T08:12:29.949Z,33
2023-10-14T08:15:01.578Z,32
2023-10-14T08:17:31.824Z,31
2023-10-14T08:20:02.400Z,32
2023-10-14T08:22:32.902Z,32
2023-10-14T08:25:04.057Z,28
2023-10-14T08:27:34.649Z,32
2023-10-14T08:30:05.199Z,32
2023-10-14T08:32:34.252Z,28
2023-10-14T08:35:05.069Z,28
2023-10-14T08:37:36.078Z,28
2023-10-14T08:40:06.802Z,28
2023-10-14T08:42:37.219Z,28
2023-10-14T08:45:08.321Z,30
2023-10-14T08:47:40.121Z,28
2023-10-14T08:50:10.523Z,28
2023-10-14T08:52:41.525Z,24
2023-10-14T08:55:12.946Z,28
2023-10-14T08:57:43.092Z,28
2023-10-14T09:00:13.672Z,28
2023-10-14T09:02:44.013Z,28
2023-10-14T09:05:14.639Z,28
2023-10-14T09:07:45.316Z,28
2023-10-14T09:10:16.365Z,28
2023-10-14T09:12:47.178Z,28
2023-10-14T09:15:18.254Z,28
2023-10-14T09:17:48.802Z,25
2023-10-14T09:20:19.258Z,23
2023-10-14T09:22:50.109Z,24
2023-10-14T09:25:21.338Z,24
2023-10-14T09:27:52.376Z,24
2023-10-14T09:30:23.159Z,20
2023-10-14T09:32:54.329Z,24
2023-10-14T09:35:25.446Z,24
2023-10-14T09:37:56.364Z,24
2023-10-14T09:40:26.906Z,24
2023-10-14T09:42:59.042Z,20
2023-10-14T09:45:29.704Z,20
2023-10-14T09:48:00.139Z,24
2023-10-14T09:53:09.325Z,16
2023-10-14T09:55:39.946Z,16
2023-10-14T09:58:10.546Z,17
2023-10-14T10:00:41.176Z,20
2023-10-14T10:03:11.848Z,16
2023-10-14T10:05:42.637Z,20
2023-10-14T10:08:13.180Z,16
2023-10-14T10:10:43.884Z,20
2023-10-14T10:13:12.982Z,20
2023-10-14T10:15:43.626Z,20
2023-10-14T10:18:14.601Z,19
2023-10-14T10:20:44.581Z,20
2023-10-14T10:23:15.286Z,19
2023-10-14T10:25:45.935Z,20
2023-10-14T10:28:16.787Z,20
2023-10-14T10:30:48.920Z,20
2023-10-14T10:33:19.444Z,20
2023-10-14T10:35:50.429Z,20
2023-10-14T10:38:21.240Z,20
2023-10-14T10:40:52.132Z,16
2023-10-14T10:43:23.106Z,17
2023-10-14T10:45:54.116Z,16
2023-10-14T10:48:24.890Z,20
2023-10-14T10:50:55.549Z,16
2023-10-14T10:53:27.096Z,20
2023-10-14T10:55:57.965Z,20
2023-10-14T10:58:28.349Z,20
2023-10-14T11:00:58.854Z,20
2023-10-14T11:03:29.649Z,19
2023-10-14T11:06:00.894Z,22
2023-10-14T11:08:31.734Z,24
2023-10-14T11:11:02.625Z,21
2023-10-14T11:13:33.676Z,24
2023-10-14T11:16:04.832Z,24
2023-10-14T11:18:39.195Z,20
2023-10-14T11:21:06.497Z,20
2023-10-14T11:23:37.469Z,14
2023-10-14T11:26:08.314Z,20
2023-10-14T11:28:39.291Z,20
2023-10-14T11:31:10.816Z,19
2023-10-14T11:33:41.918Z,20
2023-10-14T11:36:12.859Z,16
2023-10-14T11:38:43.950Z,16
2023-10-14T11:41:15.019Z,12
2023-10-14T11:43:45.550Z,16
2023-10-14T11:46:16.230Z,12
2023-10-14T11:48:46.707Z,12
2023-10-14T11:51:17.402Z,16
2023-10-14T11:53:48.125Z,16
2023-10-14T11:56:19.173Z,16
2023-10-14T11:58:50.730Z,26
2023-10-14T12:01:21.550Z,16
2023-10-14T12:03:52.367Z,13
2023-10-14T12:06:23.871Z,12
2023-10-14T12:08:54.863Z,12
2023-10-14T12:11:25.561Z,16
2023-10-14T12:13:55.892Z,12
2023-10-14T12:16:26.473Z,15
2023-10-14T12:18:56.952Z,16
2023-10-14T12:21:28.138Z,12
2023-10-14T12:23:59.345Z,16
2023-10-14T12:26:38.549Z,16
2023-10-14T12:29:01.422Z,12
2023-10-14T12:31:32.502Z,12
2023-10-14T12:34:03.339Z,16
2023-10-14T12:36:34.479Z,15
2023-10-14T12:39:05.544Z,12
2023-10-14T12:41:36.577Z,16
2023-10-14T12:44:10.468Z,12
2023-10-14T12:46:41.471Z,16
2023-10-14T12:49:12.582Z,12
2023-10-14T12:51:43.383Z,14
2023-10-14T12:54:14.376Z,16
2023-10-14T12:56:44.943Z,16
2023-10-14T12:59:15.796Z,12
2023-10-14T13:01:46.534Z,16
2023-10-14T13:04:18.353Z,12
2023-10-14T13:06:48.588Z,12
2023-10-14T13:09:19.619Z,12
2023-10-14T13:11:50.710Z,14
2023-10-14T13:14:21.865Z,16
2023-10-14T13:16:53.073Z,14
2023-10-14T13:19:23.938Z,12
2023-10-14T13:21:54.987Z,9
2023-10-14T13:24:26.355Z,16
2023-10-14T13:26:57.301Z,12
2023-10-14T13:29:28.298Z,12
2023-10-14T13:31:59.328Z,16
2023-10-14T13:34:30.168Z,16
2023-10-14T13:37:01.040Z,20
2023-10-14T13:39:32.025Z,20
2023-10-14T13:42:03.190Z,18
2023-10-14T13:44:33.640Z,18
2023-10-14T13:47:04.713Z,12
2023-10-14T13:49:35.489Z,16
2023-10-14T13:52:06.277Z,13
2023-10-14T13:54:37.023Z,16
2023-10-14T13:57:08.482Z,15
2023-10-14T13:59:39.069Z,16
2023-10-14T14:02:09.632Z,12
2023-10-14T14:04:40.693Z,16
2023-10-14T14:07:11.732Z,20
2023-10-14T14:09:42.635Z,16
2023-10-14T14:12:13.617Z,8
2023-10-14T14:14:44.597Z,12
2023-10-14T14:17:15.698Z,12
2023-10-14T14:19:46.301Z,14
2023-10-14T14:22:17.276Z,12
2023-10-14T14:24:48.363Z,16
2023-10-14T14:27:19.139Z,20
2023-10-14T14:29:49.894Z,20
2023-10-14T14:32:20.615Z,20
2023-10-14T14:34:51.426Z,16
2023-10-14T14:37:22.759Z,16
2023-10-14T14:39:53.814Z,16
2023-10-14T14:42:24.597Z,16
2023-10-14T14:44:55.728Z,16
2023-10-14T14:47:26.870Z,16
2023-10-14T14:49:57.557Z,18
2023-10-14T14:52:28.889Z,16
2023-10-14T14:54:59.924Z,16
2023-10-14T14:57:31.197Z,16
2023-10-14T15:00:01.969Z,28
2023-10-14T15:02:32.857Z,24
2023-10-14T15:05:03.759Z,19
2023-10-14T15:07:34.838Z,24
2023-10-14T15:10:05.691Z,16
2023-10-14T15:12:36.842Z,19
2023-10-14T15:15:08.860Z,17
2023-10-14T15:17:37.884Z,28
2023-10-14T15:20:08.077Z,20
2023-10-14T15:22:40.603Z,16
2023-10-14T15:25:09.209Z,20
2023-10-14T15:27:39.652Z,24
2023-10-14T15:30:09.707Z,28
2023-10-14T15:32:40.368Z,28
2023-10-14T15:35:10.924Z,25
2023-10-14T15:37:42.721Z,24
2023-10-14T15:40:11.576Z,24
2023-10-14T15:42:42.076Z,24
2023-10-14T15:45:12.450Z,32
2023-10-14T15:47:43.026Z,24
2023-10-14T15:50:13.527Z,28
2023-10-14T15:52:43.696Z,32
2023-10-14T15:55:12.855Z,24
2023-10-14T15:57:43.700Z,29
2023-10-14T16:00:14.816Z,32
2023-10-14T16:02:45.621Z,45
2023-10-14T16:05:16.314Z,23
2023-10-14T16:07:47.067Z,29
2023-10-14T16:10:18.217Z,24
2023-10-14T16:12:49.136Z,24
2023-10-14T16:15:20.158Z,24
2023-10-14T16:17:49.165Z,20
2023-10-14T16:20:20.883Z,29
2023-10-14T16:22:51.862Z,51
2023-10-14T16:25:22.696Z,29
2023-10-14T16:27:53.469Z,27
2023-10-14T16:30:24.402Z,57
2023-10-14T16:32:55.409Z,28
2023-10-14T16:35:26.164Z,24
2023-10-14T16:37:57.265Z,24
2023-10-14T16:40:28.224Z,24
2023-10-14T16:42:58.946Z,24
2023-10-14T16:45:29.679Z,27
2023-10-14T16:48:00.862Z,27
2023-10-14T16:50:29.872Z,28
2023-10-14T16:53:00.451Z,25
2023-10-14T16:55:31.395Z,32
2023-10-14T16:58:01.891Z,32
2023-10-14T17:00:32.830Z,31
2023-10-14T17:03:03.413Z,28
2023-10-14T17:05:33.956Z,28
2023-10-14T17:08:05.356Z,28
2023-10-14T17:10:34.443Z,34
2023-10-14T17:13:04.874Z,36
2023-10-14T17:15:35.638Z,40
2023-10-14T17:18:06.632Z,40
2023-10-14T17:20:37.586Z,34
2023-10-14T17:23:07.964Z,36
2023-10-14T17:25:38.552Z,28
2023-10-14T17:28:09.703Z,32
2023-10-14T17:30:42.722Z,32
2023-10-14T17:33:13.785Z,32
2023-10-14T17:35:44.506Z,32
2023-10-14T17:38:15.455Z,32
2023-10-14T17:40:46.516Z,31
2023-10-14T17:43:17.299Z,32
2023-10-14T17:45:48.287Z,32
2023-10-14T17:48:19.434Z,32
2023-10-14T17:50:50.142Z,33
2023-10-14T17:53:20.884Z,40
2023-10-14T17:55:51.541Z,32
2023-10-14T17:58:22.427Z,32
2023-10-14T18:00:53.281Z,31
2023-10-14T18:03:23.913Z,32
2023-10-14T18:05:54.901Z,40
2023-10-14T18:08:25.734Z,34
2023-10-14T18:10:56.552Z,36
2023-10-14T18:13:27.304Z,36
2023-10-14T18:15:58.078Z,35
2023-10-14T18:18:28.968Z,36
2023-10-14T18:20:59.799Z,32
2023-10-14T18:23:30.066Z,36
2023-10-14T18:26:00.584Z,40
2023-10-14T18:28:31.208Z,32
2023-10-14T18:31:02.253Z,36
2023-10-14T18:33:33.293Z,33
2023-10-14T18:36:04.079Z,36
2023-10-14T18:38:35.097Z,31
2023-10-14T18:41:06.141Z,32
2023-10-14T18:43:36.989Z,32
2023-10-14T18:46:08.166Z,32
2023-10-14T18:48:39.291Z,32
2023-10-14T18:51:09.958Z,32
2023-10-14T18:53:40.767Z,32
2023-10-14T18:56:11.745Z,32
2023-10-14T18:58:42.641Z,33
2023-10-14T19:01:13.404Z,34
2023-10-14T19:03:44.140Z,32
2023-10-14T19:06:15.191Z,32
2023-10-14T19:08:45.969Z,32
2023-10-14T19:11:14.700Z,34
2023-10-14T19:13:45.575Z,32
2023-10-14T19:16:16.329Z,36
2023-10-14T19:18:47.130Z,36
2023-10-14T19:21:17.774Z,32
2023-10-14T19:23:47.959Z,36
2023-10-14T19:26:18.858Z,36
2023-10-14T19:28:49.801Z,36
2023-10-14T19:31:20.474Z,32
2023-10-14T19:33:51.166Z,35
2023-10-14T19:36:21.830Z,32
2023-10-14T19:38:53.321Z,31
2023-10-14T19:41:24.440Z,28
2023-10-14T19:43:55.333Z,28
2023-10-14T19:46:26.032Z,28
2023-10-14T19:48:56.716Z,28
2023-10-14T19:51:25.606Z,28
2023-10-14T19:53:56.548Z,28
2023-10-14T19:56:27.416Z,28
2023-10-14T19:58:58.579Z,28
2023-10-14T20:01:29.410Z,28
2023-10-14T20:04:00.108Z,28
2023-10-14T20:06:30.857Z,28
2023-10-14T20:09:01.507Z,32
2023-10-14T20:11:34.295Z,32
2023-10-14T20:14:02.877Z,28
2023-10-14T20:16:33.453Z,29
2023-10-14T20:19:04.144Z,28
2023-10-14T20:21:35.090Z,28
2023-10-14T20:24:06.143Z,32
2023-10-14T20:26:37.023Z,28
2023-10-14T20:29:07.921Z,32
2023-10-14T20:31:38.991Z,28
2023-10-14T20:34:09.996Z,32
2023-10-14T20:36:40.668Z,30
2023-10-14T20:39:11.740Z,33
2023-10-14T20:41:42.740Z,32
2023-10-14T20:44:11.957Z,36
2023-10-14T20:46:40.932Z,44
2023-10-14T20:49:11.709Z,32
2023-10-14T20:51:40.703Z,36
2023-10-14T20:54:11.379Z,32
2023-10-14T20:56:42.565Z,28
2023-10-14T20:59:13.276Z,31
2023-10-14T21:01:42.219Z,31
2023-10-14T21:04:19.352Z,28
2023-10-14T21:06:48.092Z,28
2023-10-14T21:09:19.137Z,28
2023-10-14T21:11:50.332Z,32
2023-10-14T21:14:21.280Z,32
2023-10-14T21:16:52.097Z,32
2023-10-14T21:19:23.309Z,30
2023-10-14T21:21:54.027Z,32
2023-10-14T21:24:24.894Z,28
2023-10-14T21:26:55.471Z,28
2023-10-14T21:29:25.074Z,32
2023-10-14T21:31:56.800Z,31
2023-10-14T21:34:27.802Z,31
2023-10-14T21:37:01.488Z,30
2023-10-14T21:39:32.574Z,30
2023-10-14T21:42:03.198Z,29
2023-10-14T21:44:34.011Z,28
2023-10-14T21:47:05.272Z,31
2023-10-14T21:49:36.077Z,28
2023-10-14T21:52:06.935Z,28
2023-10-14T21:54:37.216Z,28
2023-10-14T21:57:08.348Z,40
2023-10-14T21:59:39.233Z,44
2023-10-14T22:02:10.153Z,40
2023-10-14T22:04:41.235Z,37
2023-10-14T22:07:11.980Z,48
2023-10-14T22:09:43.017Z,44
2023-10-14T22:12:14.027Z,35
2023-10-14T22:14:45.037Z,35
2023-10-14T22:17:15.229Z,32
2023-10-14T22:19:45.992Z,36
2023-10-14T22:22:16.985Z,36
2023-10-14T22:24:48.172Z,32
2023-10-14T22:27:17.202Z,32
2023-10-14T22:29:48.114Z,32
2023-10-14T22:32:19.059Z,32
2023-10-14T22:34:49.883Z,32
2023-10-14T22:37:34.477Z,32
2023-10-14T22:39:51.622Z,32
2023-10-14T22:42:21.794Z,31
2023-10-14T22:44:52.526Z,32
2023-10-14T22:47:23.622Z,31
2023-10-14T22:49:54.182Z,32
2023-10-14T22:52:25.589Z,32
2023-10-14T22:54:56.616Z,32
2023-10-14T22:57:28.109Z,32
2023-10-14T22:59:59.024Z,32
2023-10-14T23:02:30.175Z,32
2023-10-14T23:05:01.494Z,32
2023-10-14T23:07:32.181Z,32
2023-10-14T23:10:03.015Z,31
2023-10-14T23:12:34.330Z,32
2023-10-14T23:15:05.337Z,29
2023-10-14T23:17:36.744Z,28
2023-10-14T23:20:07.083Z,32
2023-10-14T23:22:38.240Z,32
2023-10-14T23:25:09.128Z,32
2023-10-14T23:27:40.237Z,31
2023-10-14T23:30:10.936Z,32
2023-10-14T23:32:42.001Z,28
2023-10-14T23:35:12.987Z,32
2023-10-14T23:37:43.861Z,32
2023-10-14T23:40:15.055Z,29
2023-10-14T23:42:47.289Z,31
2023-10-14T23:45:18.345Z,28
2023-10-14T23:47:49.699Z,28
2023-10-14T23:50:20.913Z,31
2023-10-14T23:52:52.064Z,28
2023-10-14T23:55:22.829Z,32
2023-10-14T23:57:53.992Z,28
